createdAt,value
2022-10-14T00:01:20.021Z,97898.94
2022-10-14T00:03:47.430Z,97901.66
2022-10-14T00:06:19.330Z,97892.91
2022-10-14T00:08:47.506Z,97902.50
2022-10-14T00:11:23.236Z,97898.34
2022-10-14T00:13:54.667Z,97901.78
2022-10-14T00:16:27.676Z,97901.88
2022-10-14T00:18:54.713Z,97892.28
2022-10-14T00:21:23.049Z,97904.50
2022-10-14T00:23:50.686Z,97901.88
2022-10-14T00:26:26.179Z,97904.41
2022-10-14T00:28:53.877Z,97900.97
2022-10-14T00:31:21.621Z,97893.84
2022-10-14T00:33:48.760Z,97898.09
2022-10-14T00:36:18.985Z,97901.66
2022-10-14T00:38:47.013Z,97900.72
2022-10-14T00:41:28.379Z,97911.84
2022-10-14T00:44:15.098Z,97909.94
2022-10-14T00:46:45.821Z,97906.63
2022-10-14T00:49:23.254Z,97899.50
2022-10-14T00:52:15.084Z,97900.34
2022-10-14T00:55:05.612Z,97903.88
2022-10-14T00:57:33.033Z,97896.91
2022-10-14T01:00:10.968Z,97894.28
2022-10-14T01:02:38.946Z,97898.44
2022-10-14T01:05:10.303Z,97903.75
2022-10-14T01:07:48.956Z,97900.22
2022-10-14T01:10:33.286Z,97910.63
2022-10-14T01:13:38.922Z,97905.41
2022-10-14T01:16:22.497Z,97899.50
2022-10-14T01:19:04.120Z,97894.03
2022-10-14T01:21:47.873Z,97895.94
2022-10-14T01:25:02.869Z,97897.59
2022-10-14T01:28:06.435Z,97900.22
2022-10-14T01:30:44.203Z,97899.25
2022-10-14T01:33:23.945Z,97890.47
2022-10-14T01:36:14.867Z,97881.69
2022-10-14T01:38:51.929Z,97886.81
2022-10-14T01:41:26.536Z,97881.47
2022-10-14T01:43:57.884Z,97885.59
2022-10-14T01:46:27.560Z,97881.22
2022-10-14T01:49:07.345Z,97893.19
2022-10-14T01:51:49.442Z,97890.69
2022-10-14T01:54:24.017Z,97889.75
2022-10-14T01:56:55.544Z,97876.84
2022-10-14T01:59:24.689Z,97876.69
2022-10-14T02:01:51.554Z,97884.28
2022-10-14T02:04:22.166Z,97879.88
2022-10-14T02:07:36.976Z,97884.13
2022-10-14T02:10:21.158Z,97881.53
2022-10-14T02:13:17.600Z,97877.13
2022-10-14T02:16:15.635Z,97885.91
2022-10-14T02:18:55.796Z,97876.31
2022-10-14T02:21:51.868Z,97875.41
2022-10-14T02:24:26.988Z,97877.88
2022-10-14T02:26:59.942Z,97880.47
2022-10-14T02:29:29.786Z,97870.75
2022-10-14T02:32:04.306Z,97881.19
2022-10-14T02:34:32.899Z,97869.91
2022-10-14T02:37:01.512Z,97860.31
2022-10-14T02:39:34.859Z,97867.06
2022-10-14T02:42:01.982Z,97868.84
2022-10-14T02:44:29.070Z,97863.75
2022-10-14T02:46:56.815Z,97860.44
2022-10-14T02:49:24.004Z,97858.53
2022-10-14T02:51:50.797Z,97854.41
2022-10-14T02:54:17.532Z,97851.78
2022-10-14T02:56:44.311Z,97859.63
2022-10-14T02:59:11.079Z,97849.19
2022-10-14T03:01:38.131Z,97842.31
2022-10-14T03:04:04.960Z,97844.19
2022-10-14T03:06:31.687Z,97845.16
2022-10-14T03:08:58.448Z,97846.09
2022-10-14T03:11:25.222Z,97837.59
2022-10-14T03:13:51.978Z,97838.53
2022-10-14T03:16:18.884Z,97849.94
2022-10-14T03:18:45.831Z,97843.19
2022-10-14T03:21:12.649Z,97844.97
2022-10-14T03:23:39.510Z,97844.97
2022-10-14T03:26:08.527Z,97845.78
2022-10-14T03:28:37.465Z,97843.31
2022-10-14T03:31:04.384Z,97847.81
2022-10-14T03:33:33.707Z,97845.44
2022-10-14T03:36:00.978Z,97847.38
2022-10-14T03:38:28.105Z,97843.09
2022-10-14T03:40:54.934Z,97840.50
2022-10-14T03:43:21.759Z,97844.63
2022-10-14T03:45:48.646Z,97830.75
2022-10-14T03:48:15.517Z,97830.75
2022-10-14T03:50:42.348Z,97843.09
2022-10-14T03:53:09.207Z,97835.97
2022-10-14T03:55:36.044Z,97830.75
2022-10-14T03:58:02.834Z,97834.06
2022-10-14T04:00:29.841Z,97833.13
2022-10-14T04:02:56.629Z,97830.50
2022-10-14T04:05:23.350Z,97827.91
2022-10-14T04:07:50.141Z,97823.41
2022-10-14T04:10:16.982Z,97828.63
2022-10-14T04:12:43.980Z,97827.06
2022-10-14T04:15:10.850Z,97821.72
2022-10-14T04:17:37.559Z,97817.47
2022-10-14T04:20:05.065Z,97813.09
2022-10-14T04:22:33.154Z,97819.13
2022-10-14T04:24:59.917Z,97812.03
2022-10-14T04:27:26.728Z,97807.88
2022-10-14T04:29:53.604Z,97806.81
2022-10-14T04:32:20.871Z,97804.31
2022-10-14T04:34:47.909Z,97811.31
2022-10-14T04:37:14.720Z,97813.09
2022-10-14T04:39:41.555Z,97813.91
2022-10-14T04:42:08.511Z,97809.66
2022-10-14T04:44:35.269Z,97805.38
2022-10-14T04:47:02.038Z,97810.59
2022-10-14T04:49:28.774Z,97805.66
2022-10-14T04:51:55.572Z,97796.03
2022-10-14T04:54:22.443Z,97799.47
2022-10-14T04:56:49.322Z,97797.81
2022-10-14T04:59:16.184Z,97794.53
2022-10-14T05:01:42.980Z,97797.25
2022-10-14T05:04:09.728Z,97792.88
2022-10-14T05:06:37.409Z,97790.41
2022-10-14T05:09:06.013Z,97785.31
2022-10-14T05:11:33.480Z,97786.97
2022-10-14T05:14:00.235Z,97788.63
2022-10-14T05:16:27.579Z,97785.31
2022-10-14T05:18:54.727Z,97787.78
2022-10-14T05:21:21.743Z,97784.22
2022-10-14T05:23:48.657Z,97791.91
2022-10-14T05:26:15.472Z,97785.06
2022-10-14T05:28:42.579Z,97793.69
2022-10-14T05:31:09.528Z,97784.91
2022-10-14T05:33:37.069Z,97790.97
2022-10-14T05:36:04.262Z,97791.91
2022-10-14T05:38:34.473Z,97790.00
2022-10-14T05:41:01.962Z,97790.97
2022-10-14T05:43:32.342Z,97797.69
2022-10-14T05:46:00.192Z,97794.13
2022-10-14T05:48:27.347Z,97779.31
2022-10-14T05:50:54.141Z,97786.19
2022-10-14T05:53:21.051Z,97791.16
2022-10-14T05:55:48.199Z,97790.34
2022-10-14T05:58:15.387Z,97792.56
2022-10-14T06:00:42.273Z,97796.81
2022-10-14T06:03:12.029Z,97789.00
2022-10-14T06:05:38.826Z,97791.47
2022-10-14T06:08:06.188Z,97800.00
2022-10-14T06:10:34.324Z,97796.44
2022-10-14T06:13:01.162Z,97792.16
2022-10-14T06:15:28.378Z,97801.41
2022-10-14T06:17:55.258Z,97804.59
2022-10-14T06:20:22.055Z,97802.25
2022-10-14T06:22:48.892Z,97794.16
2022-10-14T06:25:15.740Z,97796.63
2022-10-14T06:27:42.664Z,97795.53
2022-10-14T06:30:10.890Z,97800.50
2022-10-14T06:32:37.821Z,97802.88
2022-10-14T06:35:05.072Z,97801.78
2022-10-14T06:37:31.944Z,97800.00
2022-10-14T06:39:58.659Z,97800.56
2022-10-14T06:42:25.840Z,97793.56
2022-10-14T06:44:53.088Z,97798.53
2022-10-14T06:47:19.853Z,97802.41
2022-10-14T06:49:46.648Z,97802.28
2022-10-14T06:52:13.471Z,97799.16
2022-10-14T06:54:42.565Z,97798.69
2022-10-14T06:57:11.491Z,97790.72
2022-10-14T06:59:39.148Z,97800.53
2022-10-14T07:02:06.543Z,97791.72
2022-10-14T07:04:33.334Z,97793.38
2022-10-14T07:07:00.194Z,97794.91
2022-10-14T07:09:26.963Z,97795.72
2022-10-14T07:11:53.747Z,97782.81
2022-10-14T07:14:21.186Z,97797.38
2022-10-14T07:16:47.942Z,97799.72
2022-10-14T07:19:15.643Z,97797.81
2022-10-14T07:21:42.913Z,97790.28
2022-10-14T07:24:10.247Z,97787.97
2022-10-14T07:26:37.054Z,97794.47
2022-10-14T07:29:05.845Z,97794.75
2022-10-14T07:31:33.065Z,97788.19
2022-10-14T07:34:01.500Z,97790.25
2022-10-14T07:36:28.418Z,97799.38
2022-10-14T07:38:55.303Z,97798.13
2022-10-14T07:41:25.002Z,97789.06
2022-10-14T07:44:05.150Z,97800.09
2022-10-14T07:46:35.565Z,97792.66
2022-10-14T07:49:11.480Z,97800.09
2022-10-14T07:51:39.937Z,97810.28
2022-10-14T07:54:11.247Z,97797.63
2022-10-14T07:56:40.960Z,97817.31
2022-10-14T07:59:07.966Z,97818.97
2022-10-14T08:01:34.791Z,97815.28
2022-10-14T08:04:01.995Z,97818.25
2022-10-14T08:06:28.725Z,97814.97
2022-10-14T08:08:55.459Z,97813.31
2022-10-14T08:11:27.123Z,97820.19
2022-10-14T08:13:54.835Z,97821.16
2022-10-14T08:16:27.823Z,97812.50
2022-10-14T08:18:58.662Z,97820.19
2022-10-14T08:21:28.176Z,97815.53
2022-10-14T08:23:55.526Z,97809.06
2022-10-14T08:26:38.069Z,97810.59
2022-10-14T08:29:10.444Z,97805.09
2022-10-14T08:31:37.567Z,97804.56
2022-10-14T08:34:04.821Z,97804.28
2022-10-14T08:36:31.787Z,97801.25
2022-10-14T08:38:58.634Z,97799.31
2022-10-14T08:41:53.361Z,97806.66
2022-10-14T08:44:25.001Z,97805.28
2022-10-14T08:46:59.439Z,97792.06
2022-10-14T08:49:32.453Z,97789.19
2022-10-14T08:52:09.317Z,97781.59
2022-10-14T08:54:41.392Z,97779.81
2022-10-14T08:57:18.118Z,97787.38
2022-10-14T08:59:45.304Z,97781.72
2022-10-14T09:02:44.159Z,97788.16
2022-10-14T09:05:22.020Z,97783.28
2022-10-14T09:07:52.527Z,97790.97
2022-10-14T09:10:31.941Z,97786.41
2022-10-14T09:13:18.643Z,97781.69
2022-10-14T09:15:53.187Z,97778.16
2022-10-14T09:18:39.847Z,97782.69
2022-10-14T09:21:52.049Z,97773.91
2022-10-14T09:24:32.324Z,97773.72
2022-10-14T09:27:16.142Z,97772.19
2022-10-14T09:30:01.026Z,97780.56
2022-10-14T09:32:31.570Z,97774.75
2022-10-14T09:35:00.037Z,97775.91
2022-10-14T09:37:34.240Z,97773.78
2022-10-14T09:40:13.305Z,97766.44
2022-10-14T09:43:11.839Z,97762.06
2022-10-14T09:46:01.395Z,97772.28
2022-10-14T09:48:49.032Z,97761.25
2022-10-14T09:51:34.628Z,97760.63
2022-10-14T09:54:04.609Z,97763.50
2022-10-14T09:56:41.910Z,97761.09
2022-10-14T09:59:24.183Z,97751.44
2022-10-14T10:01:59.281Z,97746.53
2022-10-14T10:04:31.857Z,97760.97
2022-10-14T10:07:03.556Z,97766.22
2022-10-14T10:12:32.425Z,97754.63
2022-10-14T10:15:07.071Z,97745.25
2022-10-14T10:17:40.927Z,97738.31
2022-10-14T10:20:33.688Z,97742.09
2022-10-14T10:23:25.182Z,97729.16
2022-10-14T10:25:52.704Z,97729.81
2022-10-14T10:28:31.739Z,97727.56
2022-10-14T10:31:17.499Z,97724.63
2022-10-14T10:34:16.714Z,97709.31
2022-10-14T10:36:53.420Z,97706.84
2022-10-14T10:39:38.709Z,97707.97
2022-10-14T10:42:38.354Z,97701.56
2022-10-14T10:45:16.038Z,97694.78
2022-10-14T10:48:13.440Z,97684.25
2022-10-14T10:51:07.735Z,97682.78
2022-10-14T10:54:08.136Z,97681.69
2022-10-14T10:56:52.461Z,97670.50
2022-10-14T10:59:44.537Z,97676.06
2022-10-14T11:02:27.158Z,97675.25
2022-10-14T11:05:22.088Z,97667.63
2022-10-14T11:08:13.446Z,97671.91
2022-10-14T11:11:18.219Z,97667.91
2022-10-14T11:14:19.241Z,97661.56
2022-10-14T11:17:07.715Z,97661.47
2022-10-14T11:19:58.857Z,97651.06
2022-10-14T11:23:04.706Z,97634.44
2022-10-14T11:26:14.161Z,97620.91
2022-10-14T11:29:01.602Z,97611.03
2022-10-14T11:31:40.642Z,97610.03
2022-10-14T11:35:08.412Z,97599.47
2022-10-14T11:37:52.951Z,97602.75
2022-10-14T11:40:50.370Z,97604.84
2022-10-14T11:43:49.549Z,97609.91
2022-10-14T11:46:32.342Z,97617.66
2022-10-14T11:49:04.442Z,97606.44
2022-10-14T11:51:41.256Z,97610.88
2022-10-14T11:54:43.489Z,97599.59
2022-10-14T11:57:25.498Z,97606.16
2022-10-14T12:00:04.579Z,97602.06
2022-10-14T12:03:02.885Z,97601.53
2022-10-14T12:05:47.687Z,97600.09
2022-10-14T12:08:22.603Z,97599.16
2022-10-14T12:11:04.720Z,97588.63
2022-10-14T12:13:46.746Z,97583.69
2022-10-14T12:16:23.858Z,97575.28
2022-10-14T12:18:56.876Z,97559.34
2022-10-14T12:21:46.877Z,97567.53
2022-10-14T12:24:30.645Z,97568.31
2022-10-14T12:27:09.495Z,97564.28
2022-10-14T12:29:41.784Z,97560.00
2022-10-14T12:32:20.598Z,97550.28
2022-10-14T12:34:57.197Z,97541.44
2022-10-14T12:37:32.740Z,97554.03
2022-10-14T12:40:02.732Z,97556.72
2022-10-14T12:42:48.023Z,97555.44
2022-10-14T12:45:21.956Z,97549.88
2022-10-14T12:48:12.853Z,97539.72
2022-10-14T12:50:49.724Z,97532.50
2022-10-14T12:53:30.571Z,97541.72
2022-10-14T12:56:01.125Z,97540.06
2022-10-14T12:58:57.707Z,97540.34
2022-10-14T13:01:24.623Z,97540.69
2022-10-14T13:04:20.029Z,97539.88
2022-10-14T13:07:38.848Z,97533.16
2022-10-14T13:10:45.878Z,97522.28
2022-10-14T13:13:52.420Z,97522.28
2022-10-14T13:16:25.237Z,97519.81
2022-10-14T13:19:02.631Z,97506.03
2022-10-14T13:21:35.171Z,97512.09
2022-10-14T13:24:30.552Z,97506.69
2022-10-14T13:27:15.391Z,97506.88
2022-10-14T13:30:34.032Z,97493.72
2022-10-14T13:33:39.073Z,97485.97
2022-10-14T13:37:02.970Z,97483.84
2022-10-14T13:39:34.296Z,97484.50
2022-10-14T13:42:02.317Z,97480.72
2022-10-14T13:44:29.644Z,97483.38
2022-10-14T13:46:56.582Z,97479.56
2022-10-14T13:49:38.237Z,97469.75
2022-10-14T13:52:13.839Z,97462.84
2022-10-14T13:54:40.571Z,97477.47
2022-10-14T13:57:47.975Z,97479.91
2022-10-14T14:00:43.138Z,97472.50
2022-10-14T14:03:26.027Z,97478.19
2022-10-14T14:05:53.905Z,97476.16
2022-10-14T14:08:41.129Z,97462.38
2022-10-14T14:11:17.709Z,97468.28
2022-10-14T14:14:16.889Z,97462.38
2022-10-14T14:16:59.808Z,97461.69
2022-10-14T14:19:36.660Z,97465.63
2022-10-14T14:22:27.241Z,97465.75
2022-10-14T14:25:33.541Z,97458.19
2022-10-14T14:28:05.950Z,97450.22
2022-10-14T14:30:39.027Z,97449.50
2022-10-14T14:33:18.060Z,97452.19
2022-10-14T14:35:58.077Z,97456.34
2022-10-14T14:38:32.127Z,97445.81
2022-10-14T14:41:23.687Z,97440.59
2022-10-14T14:44:24.094Z,97439.09
2022-10-14T14:46:45.313Z,97428.28
2022-10-14T14:49:17.944Z,97426.97
2022-10-14T14:51:45.958Z,97439.78
2022-10-14T14:54:20.240Z,97425.69
2022-10-14T14:57:15.293Z,97424.53
2022-10-14T15:00:01.296Z,97430.47
2022-10-14T15:02:31.166Z,97431.28
2022-10-14T15:05:07.188Z,97433.59
2022-10-14T15:07:35.825Z,97426.38
2022-10-14T15:10:07.476Z,97423.09
2022-10-14T15:12:42.421Z,97417.34
2022-10-14T15:15:32.616Z,97412.59
2022-10-14T15:18:32.164Z,97404.22
2022-10-14T15:21:20.115Z,97404.88
2022-10-14T15:23:49.805Z,97403.41
2022-10-14T15:26:35.859Z,97397.63
2022-10-14T15:32:13.923Z,97397.28
2022-10-14T15:34:41.171Z,97393.19
2022-10-14T15:37:13.563Z,97390.91
2022-10-14T15:39:40.300Z,97395.47
2022-10-14T15:42:12.435Z,97389.41
2022-10-14T15:44:39.271Z,97389.75
2022-10-14T15:47:22.288Z,97384.66
2022-10-14T15:49:49.149Z,97384.81
2022-10-14T15:52:35.924Z,97388.59
2022-10-14T15:55:23.991Z,97377.28
2022-10-14T15:57:52.817Z,97370.53
2022-10-14T16:00:23.138Z,97368.06
2022-10-14T16:02:59.319Z,97364.78
2022-10-14T16:05:29.432Z,97367.09
2022-10-14T16:07:57.582Z,97371.03
2022-10-14T16:10:28.108Z,97378.06
2022-10-14T16:12:57.595Z,97375.78
2022-10-14T16:15:52.050Z,97377.75
2022-10-14T16:18:18.901Z,97378.75
2022-10-14T16:20:46.194Z,97374.81
2022-10-14T16:23:18.612Z,97372.47
2022-10-14T16:25:49.301Z,97364.94
2022-10-14T16:28:17.700Z,97367.72
2022-10-14T16:30:49.214Z,97373.31
2022-10-14T16:33:18.763Z,97364.63
2022-10-14T16:35:54.216Z,97365.75
2022-10-14T16:38:22.616Z,97374.75
2022-10-14T16:41:01.691Z,97370.66
2022-10-14T16:43:29.779Z,97382.16
2022-10-14T16:46:03.497Z,97374.59
2022-10-14T16:48:33.541Z,97378.22
2022-10-14T16:51:03.909Z,97375.75
2022-10-14T16:53:41.908Z,97368.22
2022-10-14T16:56:41.982Z,97367.53
2022-10-14T16:59:12.760Z,97370.31
2022-10-14T17:01:39.710Z,97368.84
2022-10-14T17:04:06.914Z,97364.75
2022-10-14T17:06:33.695Z,97368.19
2022-10-14T17:09:00.695Z,97375.41
2022-10-14T17:11:29.146Z,97378.03
2022-10-14T17:13:58.539Z,97374.75
2022-10-14T17:16:28.515Z,97381.09
2022-10-14T17:18:57.151Z,97373.22
2022-10-14T17:21:27.998Z,97385.53
2022-10-14T17:23:58.155Z,97380.28
2022-10-14T17:26:24.909Z,97377.66
2022-10-14T17:28:51.863Z,97372.41
2022-10-14T17:31:21.445Z,97379.31
2022-10-14T17:33:49.584Z,97380.28
2022-10-14T17:36:27.754Z,97377.66
2022-10-14T17:38:55.764Z,97378.63
2022-10-14T17:41:25.342Z,97374.38
2022-10-14T17:43:54.812Z,97384.41
2022-10-14T17:46:24.839Z,97381.25
2022-10-14T17:48:58.156Z,97373.56
2022-10-14T17:51:28.045Z,97372.09
2022-10-14T17:53:58.311Z,97370.78
2022-10-14T17:56:27.358Z,97382.50
2022-10-14T17:59:00.540Z,97378.56
2022-10-14T18:01:37.710Z,97376.28
2022-10-14T18:04:10.900Z,97376.59
2022-10-14T18:06:37.745Z,97372.78
2022-10-14T18:09:09.328Z,97371.31
2022-10-14T18:12:07.045Z,97375.06
2022-10-14T18:14:28.363Z,97378.31
2022-10-14T18:16:55.193Z,97373.22
2022-10-14T18:19:22.066Z,97364.88
2022-10-14T18:21:48.880Z,97367.66
2022-10-14T18:24:15.628Z,97364.50
2022-10-14T18:26:42.403Z,97377.78
2022-10-14T18:29:09.585Z,97374.50
2022-10-14T18:31:36.734Z,97364.81
2022-10-14T18:34:03.587Z,97367.28
2022-10-14T18:36:32.931Z,97361.22
2022-10-14T18:39:07.370Z,97366.63
2022-10-14T18:41:35.030Z,97363.34
2022-10-14T18:44:01.818Z,97373.00
2022-10-14T18:46:32.420Z,97359.09
2022-10-14T18:49:01.396Z,97375.63
2022-10-14T18:51:33.193Z,97374.81
2022-10-14T18:54:03.926Z,97376.59
2022-10-14T18:56:36.409Z,97361.88
2022-10-14T18:59:11.128Z,97366.28
2022-10-14T19:01:40.157Z,97366.28
2022-10-14T19:04:19.715Z,97375.13
2022-10-14T19:06:50.141Z,97371.84
2022-10-14T19:09:21.577Z,97365.78
2022-10-14T19:11:52.600Z,97365.91
2022-10-14T19:14:20.664Z,97366.06
2022-10-14T19:16:49.396Z,97369.69
2022-10-14T19:19:19.586Z,97360.50
2022-10-14T19:21:54.192Z,97355.41
2022-10-14T19:24:22.630Z,97361.78
2022-10-14T19:26:54.066Z,97359.19
2022-10-14T19:29:20.977Z,97356.03
2022-10-14T19:31:50.907Z,97349.78
2022-10-14T19:34:17.690Z,97353.38
2022-10-14T19:36:45.793Z,97353.53
2022-10-14T19:39:16.822Z,97358.91
2022-10-14T19:41:46.212Z,97354.81
2022-10-14T19:44:15.786Z,97352.34
2022-10-14T19:46:44.009Z,97350.69
2022-10-14T19:49:13.323Z,97343.00
2022-10-14T19:51:40.560Z,97349.22
2022-10-14T19:54:07.703Z,97352.81
2022-10-14T19:56:34.732Z,97340.53
2022-10-14T19:59:01.830Z,97332.84
2022-10-14T20:01:30.741Z,97327.75
2022-10-14T20:04:01.165Z,97327.88
2022-10-14T20:06:33.772Z,97321.00
2022-10-14T20:09:01.726Z,97309.03
2022-10-14T20:11:29.053Z,97300.53
2022-10-14T20:13:55.881Z,97309.38
2022-10-14T20:16:22.905Z,97304.13
2022-10-14T20:18:49.714Z,97317.22
2022-10-14T20:21:16.918Z,97310.66
2022-10-14T20:23:45.017Z,97310.00
2022-10-14T20:26:19.623Z,97317.97
2022-10-14T20:28:47.499Z,97314.66
2022-10-14T20:31:18.479Z,97297.19
2022-10-14T20:33:45.740Z,97282.41
2022-10-14T20:36:21.445Z,97295.50
2022-10-14T20:38:49.602Z,97286.19
2022-10-14T20:41:21.442Z,97282.91
2022-10-14T20:43:48.712Z,97280.44
2022-10-14T20:46:16.678Z,97275.19
2022-10-14T20:48:44.018Z,97284.03
2022-10-14T20:51:17.883Z,97277.28
2022-10-14T20:53:44.752Z,97275.81
2022-10-14T20:56:13.492Z,97282.03
2022-10-14T20:58:41.101Z,97293.47
2022-10-14T21:01:17.782Z,97288.22
2022-10-14T21:03:46.587Z,97284.63
2022-10-14T21:06:17.445Z,97281.88
2022-10-14T21:08:45.003Z,97275.81
2022-10-14T21:11:15.779Z,97284.63
2022-10-14T21:13:59.523Z,97270.72
2022-10-14T21:16:29.294Z,97266.63
2022-10-14T21:19:01.678Z,97267.59
2022-10-14T21:21:35.142Z,97267.94
2022-10-14T21:24:01.956Z,97268.22
2022-10-14T21:26:30.255Z,97266.56
2022-10-14T21:28:57.311Z,97264.09
2022-10-14T21:31:25.239Z,97268.53
2022-10-14T21:34:04.134Z,97266.06
2022-10-14T21:36:32.649Z,97262.47
2022-10-14T21:39:01.498Z,97253.13
2022-10-14T21:41:28.727Z,97257.22
2022-10-14T21:43:58.819Z,97250.34
2022-10-14T21:46:26.863Z,97254.63
2022-10-14T21:48:57.111Z,97252.81
2022-10-14T21:51:27.251Z,97251.19
2022-10-14T21:53:54.534Z,97252.00
2022-10-14T21:56:22.486Z,97240.72
2022-10-14T21:58:49.619Z,97234.81
2022-10-14T22:01:24.086Z,97234.16
2022-10-14T22:04:00.957Z,97226.47
2022-10-14T22:06:28.384Z,97229.22
2022-10-14T22:08:58.354Z,97224.00
2022-10-14T22:11:32.691Z,97220.69
2022-10-14T22:14:02.424Z,97214.47
2022-10-14T22:16:29.755Z,97202.19
2022-10-14T22:19:01.758Z,97203.19
2022-10-14T22:21:31.712Z,97202.78
2022-10-14T22:23:58.954Z,97214.47
2022-10-14T22:26:28.476Z,97196.16
2022-10-14T22:29:05.967Z,97201.38
2022-10-14T22:31:34.089Z,97191.06
2022-10-14T22:34:04.260Z,97182.56
2022-10-14T22:36:33.095Z,97192.38
2022-10-14T22:39:05.756Z,97187.28
2022-10-14T22:41:35.671Z,97188.13
2022-10-14T22:44:04.842Z,97183.03
2022-10-14T22:46:34.979Z,97177.00
2022-10-14T22:49:01.985Z,97181.41
2022-10-14T22:51:34.866Z,97176.00
2022-10-14T22:54:02.251Z,97165.84
2022-10-14T22:56:31.280Z,97158.84
2022-10-14T22:59:10.021Z,97166.84
2022-10-14T23:01:38.620Z,97158.16
2022-10-14T23:04:08.256Z,97151.97
2022-10-14T23:06:35.787Z,97157.31
2022-10-14T23:09:03.417Z,97144.41
2022-10-14T23:11:31.974Z,97146.19
2022-10-14T23:14:01.460Z,97145.38
2022-10-14T23:16:31.560Z,97149.78
2022-10-14T23:18:59.234Z,97144.88
2022-10-14T23:21:33.525Z,97149.28
2022-10-14T23:24:04.042Z,97146.66
2022-10-14T23:26:34.322Z,97139.97
2022-10-14T23:29:04.963Z,97146.00
2022-10-14T23:31:34.636Z,97140.78
2022-10-14T23:34:05.589Z,97135.53
2022-10-14T23:36:32.637Z,97136.53
2022-10-14T23:38:59.978Z,97132.25
2022-10-14T23:41:26.927Z,97124.09
2022-10-14T23:43:54.093Z,97127.84
2022-10-14T23:46:21.081Z,97118.53
2022-10-14T23:48:55.849Z,97123.75
2022-10-14T23:51:34.098Z,97120.97
2022-10-14T23:54:00.926Z,97120.44
2022-10-14T23:56:27.753Z,97123.22
2022-10-14T23:58:54.693Z,97120.44
